createdAt,value
2023-01-30T00:01:06.152Z,7.65
2023-01-30T00:03:34.514Z,6.63
2023-01-30T00:06:01.905Z,7.05
2023-01-30T00:08:30.125Z,6.30
2023-01-30T00:10:57.392Z,6.43
2023-01-30T00:13:25.938Z,6.75
2023-01-30T00:15:54.080Z,7.20
2023-01-30T00:18:22.716Z,6.20
2023-01-30T00:20:55.742Z,10.90
2023-01-30T00:23:25.252Z,15.57
2023-01-30T00:25:52.772Z,13.35
2023-01-30T00:28:20.646Z,14.10
2023-01-30T00:30:55.927Z,11.90
2023-01-30T00:33:25.773Z,11.25
2023-01-30T00:35:54.940Z,10.43
2023-01-30T00:38:24.199Z,12.02
2023-01-30T00:40:51.956Z,10.10
2023-01-30T00:43:40.285Z,10.27
2023-01-30T00:46:44.879Z,10.50
2023-01-30T00:49:12.737Z,9.27
2023-01-30T00:51:41.478Z,8.95
2023-01-30T00:54:08.920Z,9.38
2023-01-30T00:56:36.673Z,9.77
2023-01-30T00:59:04.753Z,9.88
2023-01-30T01:01:33.178Z,10.18
2023-01-30T01:04:01.029Z,8.52
2023-01-30T01:06:28.451Z,8.63
2023-01-30T01:08:56.150Z,7.95
2023-01-30T01:11:29.755Z,8.10
2023-01-30T01:14:00.091Z,7.53
2023-01-30T01:16:30.825Z,8.50
2023-01-30T01:19:00.304Z,7.55
2023-01-30T01:21:28.018Z,9.70
2023-01-30T01:23:58.839Z,10.18
2023-01-30T01:26:27.083Z,9.82
2023-01-30T01:28:59.237Z,8.07
2023-01-30T01:31:27.054Z,8.07
2023-01-30T01:33:57.443Z,11.50
2023-01-30T01:36:53.348Z,9.98
2023-01-30T01:39:16.956Z,7.30
2023-01-30T01:41:44.203Z,8.63
2023-01-30T01:44:14.128Z,9.18
2023-01-30T01:46:56.061Z,10.18
2023-01-30T01:49:28.313Z,10.27
2023-01-30T01:52:07.872Z,7.97
2023-01-30T01:54:49.739Z,7.82
2023-01-30T01:57:30.174Z,7.78
2023-01-30T02:00:06.832Z,8.65
2023-01-30T02:02:44.358Z,9.70
2023-01-30T02:05:14.228Z,8.93
2023-01-30T02:07:54.789Z,9.60
2023-01-30T02:10:49.118Z,8.93
2023-01-30T02:13:17.298Z,8.50
2023-01-30T02:15:47.987Z,9.63
2023-01-30T02:20:51.437Z,8.35
2023-01-30T02:23:36.431Z,7.95
2023-01-30T02:26:26.409Z,6.75
2023-01-30T02:29:19.981Z,6.65
2023-01-30T02:32:07.030Z,7.38
2023-01-30T02:34:47.429Z,8.23
2023-01-30T02:37:21.126Z,9.00
2023-01-30T02:40:29.860Z,8.48
2023-01-30T02:43:16.901Z,9.05
2023-01-30T02:46:10.053Z,9.38
2023-01-30T02:48:49.425Z,7.93
2023-01-30T02:51:40.072Z,7.70
2023-01-30T02:54:11.010Z,7.53
2023-01-30T02:57:03.333Z,7.32
2023-01-30T02:59:39.137Z,7.75
2023-01-30T03:02:26.175Z,8.15
2023-01-30T03:05:26.804Z,8.90
2023-01-30T03:08:08.037Z,8.73
2023-01-30T03:11:06.447Z,8.82
2023-01-30T03:13:55.707Z,7.63
2023-01-30T03:16:32.587Z,7.28
2023-01-30T03:19:06.060Z,8.93
2023-01-30T03:21:33.954Z,8.40
2023-01-30T03:24:01.830Z,10.13
2023-01-30T03:26:36.820Z,12.73
2023-01-30T03:29:05.428Z,9.15
2023-01-30T03:31:33.328Z,8.07
2023-01-30T03:34:02.137Z,7.22
2023-01-30T03:36:31.470Z,8.85
2023-01-30T03:38:59.499Z,9.40
2023-01-30T03:41:26.865Z,8.63
2023-01-30T03:43:54.570Z,10.50
2023-01-30T03:46:22.231Z,16.55
2023-01-30T03:48:50.402Z,41.20
2023-01-30T03:51:18.082Z,35.63
2023-01-30T03:53:46.419Z,23.30
2023-01-30T03:56:13.992Z,17.80
2023-01-30T03:58:41.561Z,18.75
2023-01-30T04:01:21.496Z,18.83
2023-01-30T04:03:49.382Z,11.60
2023-01-30T04:06:17.580Z,10.43
2023-01-30T04:08:46.062Z,10.93
2023-01-30T04:11:26.914Z,11.18
2023-01-30T04:13:54.530Z,13.77
2023-01-30T04:16:26.721Z,12.63
2023-01-30T04:19:17.038Z,12.93
2023-01-30T04:21:47.802Z,11.30
2023-01-30T04:24:16.113Z,9.70
2023-01-30T04:26:43.777Z,10.10
2023-01-30T04:29:12.714Z,11.57
2023-01-30T04:31:41.159Z,8.60
2023-01-30T04:34:21.941Z,8.80
2023-01-30T04:36:50.185Z,9.82
2023-01-30T04:39:19.417Z,10.05
2023-01-30T04:41:48.271Z,11.67
2023-01-30T04:44:16.785Z,11.73
2023-01-30T04:47:00.844Z,10.57
2023-01-30T04:49:29.666Z,10.20
2023-01-30T04:54:27.236Z,10.85
2023-01-30T04:56:55.424Z,11.05
2023-01-30T04:59:24.167Z,10.40
2023-01-30T05:02:18.774Z,11.40
2023-01-30T05:04:51.642Z,10.57
2023-01-30T05:07:19.394Z,12.70
2023-01-30T05:09:46.640Z,9.98
2023-01-30T05:12:14.986Z,11.43
2023-01-30T05:14:42.747Z,10.90
2023-01-30T05:17:11.938Z,10.20
2023-01-30T05:19:39.333Z,11.48
2023-01-30T05:22:06.871Z,8.93
2023-01-30T05:24:35.136Z,10.90
2023-01-30T05:27:02.762Z,9.95
2023-01-30T05:29:30.954Z,12.10
2023-01-30T05:31:58.705Z,10.35
2023-01-30T05:34:27.037Z,10.57
2023-01-30T05:36:54.308Z,11.52
2023-01-30T05:39:21.795Z,9.20
2023-01-30T05:41:49.192Z,12.15
2023-01-30T05:44:16.888Z,16.83
2023-01-30T05:46:45.542Z,13.80
2023-01-30T05:49:13.283Z,15.10
2023-01-30T05:51:41.859Z,13.30
2023-01-30T05:54:09.239Z,10.13
2023-01-30T05:56:37.673Z,13.48
2023-01-30T05:59:05.038Z,12.40
2023-01-30T06:01:33.323Z,13.07
2023-01-30T06:04:00.797Z,17.83
2023-01-30T06:06:28.717Z,13.73
2023-01-30T06:08:57.078Z,13.20
2023-01-30T06:11:25.100Z,12.50
2023-01-30T06:13:52.568Z,12.60
2023-01-30T06:16:21.142Z,11.68
2023-01-30T06:18:48.796Z,9.77
2023-01-30T06:21:17.269Z,7.47
2023-01-30T06:23:44.906Z,9.77
2023-01-30T06:26:13.332Z,9.95
2023-01-30T06:28:43.434Z,9.50
2023-01-30T06:31:11.937Z,11.02
2023-01-30T06:33:39.563Z,9.75
2023-01-30T06:36:07.233Z,12.85
2023-01-30T06:38:35.116Z,16.80
2023-01-30T06:41:02.698Z,15.00
2023-01-30T06:43:31.242Z,15.02
2023-01-30T06:46:04.520Z,13.68
2023-01-30T06:48:33.057Z,12.57
2023-01-30T06:51:00.410Z,13.55
2023-01-30T06:53:30.719Z,11.25
2023-01-30T06:55:59.826Z,11.93
2023-01-30T06:58:28.013Z,11.55
2023-01-30T07:00:57.437Z,15.05
2023-01-30T07:03:25.008Z,17.70
2023-01-30T07:05:52.779Z,14.07
2023-01-30T07:08:21.742Z,15.30
2023-01-30T07:10:51.783Z,13.13
2023-01-30T07:13:19.482Z,13.73
2023-01-30T07:15:47.406Z,15.60
2023-01-30T07:18:15.510Z,21.27
2023-01-30T07:20:46.671Z,16.52
2023-01-30T07:23:15.451Z,18.13
2023-01-30T07:25:42.876Z,17.00
2023-01-30T07:28:11.032Z,15.98
2023-01-30T07:30:42.228Z,20.38
2023-01-30T07:33:10.527Z,32.25
2023-01-30T07:35:38.917Z,22.05
2023-01-30T07:38:06.796Z,21.65
2023-01-30T07:40:34.611Z,17.50
2023-01-30T07:43:07.590Z,17.92
2023-01-30T07:45:46.941Z,27.13
2023-01-30T07:48:17.968Z,39.75
2023-01-30T07:50:46.315Z,36.40
2023-01-30T07:53:16.626Z,35.88
2023-01-30T07:55:44.553Z,26.23
2023-01-30T07:58:15.314Z,23.08
2023-01-30T08:00:49.581Z,22.23
2023-01-30T08:03:17.819Z,20.42
2023-01-30T08:05:47.248Z,22.67
2023-01-30T08:08:15.083Z,29.63
2023-01-30T08:10:43.598Z,24.65
2023-01-30T08:13:11.915Z,40.97
2023-01-30T08:15:41.848Z,32.30
2023-01-30T08:18:10.653Z,28.92
2023-01-30T08:20:38.121Z,26.83
2023-01-30T08:23:06.297Z,21.60
2023-01-30T08:25:35.559Z,23.23
2023-01-30T08:28:11.502Z,27.35
2023-01-30T08:30:46.427Z,30.02
2023-01-30T08:33:15.055Z,28.27
2023-01-30T08:35:42.563Z,32.20
2023-01-30T08:38:09.879Z,39.65
2023-01-30T08:40:39.140Z,35.05
2023-01-30T08:43:07.070Z,33.78
2023-01-30T08:45:38.656Z,22.30
2023-01-30T08:48:08.168Z,21.20
2023-01-30T08:50:37.182Z,21.67
2023-01-30T08:53:09.473Z,23.05
2023-01-30T08:55:36.926Z,19.85
2023-01-30T08:58:04.362Z,20.38
2023-01-30T09:00:35.285Z,16.88
2023-01-30T09:03:03.151Z,15.20
2023-01-30T09:05:30.826Z,15.52
2023-01-30T09:07:58.127Z,16.00
2023-01-30T09:10:25.439Z,20.98
2023-01-30T09:12:54.315Z,20.90
2023-01-30T09:15:21.726Z,27.27
2023-01-30T09:17:49.374Z,30.48
2023-01-30T09:20:17.603Z,18.20
2023-01-30T09:22:45.231Z,19.70
2023-01-30T09:25:13.029Z,22.08
2023-01-30T09:27:41.800Z,36.28
2023-01-30T09:30:12.559Z,28.45
2023-01-30T09:32:40.112Z,20.17
2023-01-30T09:35:09.401Z,21.38
2023-01-30T09:37:38.331Z,20.27
2023-01-30T09:40:08.609Z,22.02
2023-01-30T09:42:38.155Z,16.67
2023-01-30T09:45:32.385Z,15.63
2023-01-30T09:48:18.306Z,15.40
2023-01-30T09:51:04.140Z,19.05
2023-01-30T09:54:00.992Z,20.20
2023-01-30T09:56:28.702Z,16.50
2023-01-30T09:58:59.453Z,16.90
2023-01-30T10:01:52.089Z,14.43
2023-01-30T10:04:39.057Z,13.77
2023-01-30T10:07:19.562Z,13.82
2023-01-30T10:09:56.108Z,10.05
2023-01-30T10:12:41.903Z,10.50
2023-01-30T10:15:35.267Z,12.57
2023-01-30T10:18:15.043Z,12.25
2023-01-30T10:21:15.743Z,11.07
2023-01-30T10:26:31.872Z,10.13
2023-01-30T10:29:23.321Z,12.68
2023-01-30T10:32:00.235Z,11.52
2023-01-30T10:34:34.870Z,12.63
2023-01-30T10:37:22.260Z,16.33
2023-01-30T10:39:56.929Z,16.88
2023-01-30T10:42:38.875Z,13.88
2023-01-30T10:45:17.476Z,11.95
2023-01-30T10:48:10.651Z,13.73
2023-01-30T10:50:56.501Z,15.25
2023-01-30T10:53:35.333Z,14.00
2023-01-30T10:56:11.590Z,14.95
2023-01-30T10:58:54.669Z,15.30
2023-01-30T11:01:38.654Z,15.88
2023-01-30T11:04:24.586Z,15.13
2023-01-30T11:06:53.954Z,26.13
2023-01-30T11:09:22.710Z,16.55
2023-01-30T11:14:20.581Z,16.95
2023-01-30T11:16:51.195Z,16.98
2023-01-30T11:19:22.812Z,21.58
2023-01-30T11:21:53.468Z,26.33
2023-01-30T11:26:53.951Z,26.67
2023-01-30T11:29:35.559Z,17.88
2023-01-30T11:32:30.051Z,16.38
2023-01-30T11:35:09.939Z,16.30
2023-01-30T11:37:39.727Z,15.68
2023-01-30T11:40:21.328Z,18.10
2023-01-30T11:42:51.615Z,18.35
2023-01-30T11:45:21.266Z,16.52
2023-01-30T11:47:59.274Z,19.37
2023-01-30T11:50:43.519Z,21.85
2023-01-30T11:53:25.344Z,18.33
2023-01-30T11:56:05.158Z,16.63
2023-01-30T11:58:36.917Z,17.80
2023-01-30T12:01:05.526Z,36.22
2023-01-30T12:03:34.634Z,18.35
2023-01-30T12:06:03.310Z,17.10
2023-01-30T12:08:42.752Z,16.95
2023-01-30T12:11:45.468Z,15.88
2023-01-30T12:14:26.327Z,17.55
2023-01-30T12:17:21.728Z,17.67
2023-01-30T12:20:06.789Z,18.88
2023-01-30T12:23:12.954Z,16.88
2023-01-30T12:26:11.856Z,16.17
2023-01-30T12:28:57.156Z,16.30
2023-01-30T12:31:26.548Z,15.63
2023-01-30T12:33:55.609Z,16.05
2023-01-30T12:36:28.422Z,18.92
2023-01-30T12:39:30.617Z,20.77
2023-01-30T12:42:31.572Z,16.73
2023-01-30T12:44:59.405Z,14.55
2023-01-30T12:47:33.312Z,17.13
2023-01-30T12:50:14.194Z,16.35
2023-01-30T12:52:57.025Z,16.55
2023-01-30T12:55:42.357Z,15.77
2023-01-30T12:58:20.514Z,16.50
2023-01-30T13:01:16.250Z,16.52
2023-01-30T13:03:59.680Z,19.00
2023-01-30T13:06:52.813Z,16.55
2023-01-30T13:09:44.808Z,17.35
2023-01-30T13:12:28.081Z,17.48
2023-01-30T13:15:18.894Z,18.70
2023-01-30T13:18:15.937Z,17.85
2023-01-30T13:21:10.854Z,16.17
2023-01-30T13:24:09.196Z,16.83
2023-01-30T13:26:38.171Z,17.63
2023-01-30T13:29:14.990Z,15.77
2023-01-30T13:31:52.395Z,19.05
2023-01-30T13:34:35.154Z,17.35
2023-01-30T13:37:13.573Z,17.25
2023-01-30T13:39:44.585Z,15.77
2023-01-30T13:42:33.219Z,17.20
2023-01-30T13:45:01.666Z,18.02
2023-01-30T13:47:50.418Z,19.20
2023-01-30T13:50:30.904Z,17.65
2023-01-30T13:55:46.843Z,15.40
2023-01-30T13:58:48.856Z,18.27
2023-01-30T14:01:16.497Z,17.38
2023-01-30T14:03:44.910Z,16.25
2023-01-30T14:06:37.322Z,17.77
2023-01-30T14:09:26.644Z,17.48
2023-01-30T14:12:00.891Z,20.48
2023-01-30T14:14:41.498Z,18.05
2023-01-30T14:17:15.317Z,17.95
2023-01-30T14:19:59.246Z,20.23
2023-01-30T14:22:47.998Z,18.63
2023-01-30T14:25:30.693Z,18.48
2023-01-30T14:28:19.793Z,17.75
2023-01-30T14:31:00.185Z,18.48
2023-01-30T14:33:27.627Z,17.05
2023-01-30T14:36:01.760Z,15.38
2023-01-30T14:38:34.168Z,18.20
2023-01-30T14:41:05.804Z,14.52
2023-01-30T14:43:53.084Z,18.05
2023-01-30T14:46:20.832Z,17.75
2023-01-30T14:48:52.098Z,16.60
2023-01-30T14:51:38.154Z,17.40
2023-01-30T14:54:18.690Z,16.40
2023-01-30T14:59:41.563Z,17.20
2023-01-30T15:04:47.931Z,28.92
2023-01-30T15:07:19.401Z,85.40
2023-01-30T15:10:05.198Z,57.58
2023-01-30T15:12:38.514Z,44.38
2023-01-30T15:15:35.705Z,34.22
2023-01-30T15:18:13.246Z,29.67
2023-01-30T15:21:06.109Z,25.00
2023-01-30T15:24:04.692Z,22.35
2023-01-30T15:26:43.968Z,21.42
2023-01-30T15:29:30.023Z,19.95
2023-01-30T15:32:02.777Z,19.23
2023-01-30T15:34:34.404Z,19.80
2023-01-30T15:37:01.768Z,17.92
2023-01-30T15:39:29.398Z,17.02
2023-01-30T15:42:07.273Z,16.40
2023-01-30T15:45:03.823Z,16.45
2023-01-30T15:47:58.959Z,17.00
2023-01-30T15:50:26.439Z,16.42
2023-01-30T15:52:56.627Z,17.27
2023-01-30T15:55:37.996Z,18.33
2023-01-30T15:58:13.490Z,16.67
2023-01-30T16:00:53.850Z,14.95
2023-01-30T16:03:31.573Z,17.33
2023-01-30T16:05:59.740Z,17.25
2023-01-30T16:08:33.113Z,17.70
2023-01-30T16:11:01.642Z,20.15
2023-01-30T16:13:30.071Z,19.23
2023-01-30T16:16:18.979Z,23.40
2023-01-30T16:18:52.862Z,32.38
2023-01-30T16:21:27.376Z,30.52
2023-01-30T16:24:06.970Z,21.65
2023-01-30T16:26:37.018Z,18.45
2023-01-30T16:29:14.481Z,16.33
2023-01-30T16:31:47.867Z,17.30
2023-01-30T16:34:30.440Z,18.17
2023-01-30T16:37:08.636Z,14.57
2023-01-30T16:39:39.763Z,14.90
2023-01-30T16:42:28.769Z,16.00
2023-01-30T16:45:12.329Z,36.85
2023-01-30T16:47:41.034Z,27.80
2023-01-30T16:50:28.564Z,15.80
2023-01-30T16:52:57.245Z,15.57
2023-01-30T16:55:28.455Z,14.35
2023-01-30T17:00:42.754Z,16.48
2023-01-30T17:04:00.709Z,17.45
2023-01-30T17:06:53.422Z,17.90
2023-01-30T17:09:42.821Z,19.73
2023-01-30T17:12:31.311Z,17.65
2023-01-30T17:15:14.764Z,20.02
2023-01-30T17:17:42.645Z,19.50
2023-01-30T17:20:11.739Z,20.48
2023-01-30T17:22:42.043Z,19.02
2023-01-30T17:25:30.540Z,17.95
2023-01-30T17:27:59.490Z,16.60
2023-01-30T17:30:32.333Z,15.50
2023-01-30T17:33:01.041Z,19.80
2023-01-30T17:35:28.389Z,22.48
2023-01-30T17:38:04.856Z,25.23
2023-01-30T17:41:02.614Z,22.30
2023-01-30T17:43:30.356Z,22.65
2023-01-30T17:45:58.603Z,25.60
2023-01-30T17:48:26.592Z,29.42
2023-01-30T17:50:54.016Z,19.50
2023-01-30T17:53:21.425Z,19.92
2023-01-30T17:55:48.849Z,20.00
2023-01-30T17:58:21.491Z,17.60
2023-01-30T18:00:51.544Z,17.88
2023-01-30T18:03:20.825Z,28.10
2023-01-30T18:05:49.168Z,23.27
2023-01-30T18:08:16.825Z,19.20
2023-01-30T18:10:44.282Z,30.40
2023-01-30T18:13:15.245Z,20.60
2023-01-30T18:15:48.859Z,17.40
2023-01-30T18:18:19.328Z,17.77
2023-01-30T18:20:48.407Z,16.20
2023-01-30T18:23:18.520Z,18.58
2023-01-30T18:25:46.876Z,24.60
2023-01-30T18:28:14.593Z,19.92
2023-01-30T18:30:45.261Z,18.60
2023-01-30T18:33:13.845Z,20.40
2023-01-30T18:35:41.235Z,22.67
2023-01-30T18:38:09.397Z,22.15
2023-01-30T18:40:40.156Z,23.08
2023-01-30T18:43:07.489Z,25.98
2023-01-30T18:45:39.185Z,20.83
2023-01-30T18:48:06.759Z,22.48
2023-01-30T18:50:34.085Z,26.60
2023-01-30T18:53:02.102Z,15.32
2023-01-30T18:55:29.496Z,16.45
2023-01-30T18:58:00.468Z,16.83
2023-01-30T19:00:28.114Z,15.57
2023-01-30T19:02:56.573Z,22.70
2023-01-30T19:05:24.320Z,21.88
2023-01-30T19:07:51.675Z,25.80
2023-01-30T19:10:20.773Z,20.70
2023-01-30T19:13:06.826Z,20.45
2023-01-30T19:15:38.230Z,34.83
2023-01-30T19:18:06.768Z,92.90
2023-01-30T19:20:35.588Z,66.53
2023-01-30T19:23:03.032Z,57.00
2023-01-30T19:25:30.432Z,24.20
2023-01-30T19:27:58.182Z,21.90
2023-01-30T19:30:25.802Z,20.23
2023-01-30T19:32:54.447Z,25.42
2023-01-30T19:35:23.649Z,22.13
2023-01-30T19:37:55.491Z,23.65
2023-01-30T19:40:23.123Z,24.65
2023-01-30T19:42:54.637Z,23.30
2023-01-30T19:45:28.388Z,19.38
2023-01-30T19:47:56.832Z,18.00
2023-01-30T19:50:24.520Z,21.48
2023-01-30T19:52:54.718Z,18.45
2023-01-30T19:55:23.386Z,15.52
2023-01-30T19:57:51.399Z,17.80
2023-01-30T20:00:20.921Z,17.52
2023-01-30T20:02:50.151Z,21.33
2023-01-30T20:05:20.093Z,20.00
2023-01-30T20:07:47.435Z,21.27
2023-01-30T20:10:15.000Z,30.33
2023-01-30T20:12:44.085Z,17.70
2023-01-30T20:15:11.997Z,14.70
2023-01-30T20:17:41.192Z,13.07
2023-01-30T20:20:10.787Z,16.75
2023-01-30T20:22:39.732Z,15.55
2023-01-30T20:25:09.158Z,14.15
2023-01-30T20:27:36.866Z,16.52
2023-01-30T20:30:05.847Z,16.00
2023-01-30T20:32:35.894Z,14.32
2023-01-30T20:35:05.477Z,19.80
2023-01-30T20:37:35.701Z,17.05
2023-01-30T20:40:03.837Z,13.70
2023-01-30T20:42:32.080Z,15.02
2023-01-30T20:45:00.205Z,14.57
2023-01-30T20:47:28.612Z,14.25
2023-01-30T20:49:56.005Z,19.27
2023-01-30T20:52:23.979Z,14.55
2023-01-30T20:54:52.261Z,11.75
2023-01-30T20:57:19.711Z,12.02
2023-01-30T20:59:47.403Z,11.77
2023-01-30T21:02:17.822Z,13.20
2023-01-30T21:04:45.876Z,13.05
2023-01-30T21:07:13.352Z,16.48
2023-01-30T21:09:47.826Z,14.65
2023-01-30T21:12:15.399Z,15.65
2023-01-30T21:14:42.914Z,15.07
2023-01-30T21:17:10.303Z,14.73
2023-01-30T21:19:38.417Z,11.98
2023-01-30T21:22:12.096Z,18.88
2023-01-30T21:24:39.771Z,15.63
2023-01-30T21:27:08.305Z,12.63
2023-01-30T21:29:36.841Z,15.30
2023-01-30T21:32:06.413Z,16.27
2023-01-30T21:34:35.869Z,13.88
2023-01-30T21:37:21.681Z,14.82
2023-01-30T21:40:08.183Z,16.00
2023-01-30T21:42:54.611Z,14.48
2023-01-30T21:45:23.337Z,12.57
2023-01-30T21:47:52.283Z,14.32
2023-01-30T21:50:21.465Z,17.00
2023-01-30T21:52:48.880Z,16.92
2023-01-30T21:55:17.702Z,17.63
2023-01-30T21:57:45.362Z,15.80
2023-01-30T22:00:13.461Z,14.32
2023-01-30T22:02:41.478Z,13.10
2023-01-30T22:05:10.159Z,12.32
2023-01-30T22:07:37.926Z,14.05
2023-01-30T22:10:05.827Z,15.90
2023-01-30T22:12:33.304Z,14.65
2023-01-30T22:15:01.994Z,19.52
2023-01-30T22:17:29.424Z,15.30
2023-01-30T22:19:58.157Z,14.43
2023-01-30T22:22:26.016Z,14.52
2023-01-30T22:24:53.954Z,17.08
2023-01-30T22:27:21.565Z,16.48
2023-01-30T22:29:49.722Z,18.33
2023-01-30T22:32:17.135Z,20.83
2023-01-30T22:34:45.328Z,17.45
2023-01-30T22:37:13.030Z,17.77
2023-01-30T22:39:41.721Z,15.27
2023-01-30T22:42:09.543Z,14.48
2023-01-30T22:44:38.194Z,13.85
2023-01-30T22:47:06.199Z,12.43
2023-01-30T22:49:33.505Z,15.32
2023-01-30T22:52:01.876Z,14.50
2023-01-30T22:54:29.391Z,13.60
2023-01-30T22:56:57.064Z,17.17
2023-01-30T22:59:24.672Z,14.23
2023-01-30T23:01:52.103Z,15.25
2023-01-30T23:04:24.303Z,14.32
2023-01-30T23:06:52.709Z,12.18
2023-01-30T23:09:23.410Z,15.25
2023-01-30T23:14:39.312Z,14.25
2023-01-30T23:17:26.668Z,14.15
2023-01-30T23:19:55.404Z,14.50
2023-01-30T23:22:23.247Z,13.55
2023-01-30T23:24:51.517Z,15.77
2023-01-30T23:27:20.250Z,14.43
2023-01-30T23:29:47.662Z,13.35
2023-01-30T23:32:15.399Z,14.45
2023-01-30T23:34:42.854Z,14.15
2023-01-30T23:37:10.255Z,15.82
2023-01-30T23:39:38.929Z,13.68
2023-01-30T23:42:06.461Z,15.38
2023-01-30T23:44:34.004Z,14.88
2023-01-30T23:47:01.816Z,13.80
2023-01-30T23:49:29.714Z,18.10
2023-01-30T23:51:57.504Z,29.42
2023-01-30T23:54:25.628Z,35.72
2023-01-30T23:56:55.451Z,15.88
2023-01-30T23:59:22.782Z,14.10
